sensor_id;sensor_type;location;lat;lon;timestamp;P1;durP1;ratioP1;P2;durP2;ratioP2
33824;SDS011;20127;48.962;8.342;2023-03-01T00:02:00;18.07;;;13.13;;
33824;SDS011;20127;48.962;8.342;2023-03-01T00:05:02;24.37;;;15.10;;
33824;SDS011;20127;48.962;8.342;2023-03-01T00:08:04;26.70;;;15.57;;
33824;SDS011;20127;48.962;8.342;2023-03-01T00:11:07;23.43;;;13.47;;
33824;SDS011;20127;48.962;8.342;2023-03-01T00:14:12;21.07;;;14.37;;
33824;SDS011;20127;48.962;8.342;2023-03-01T00:17:16;22.13;;;14.30;;
33824;SDS011;20127;48.962;8.342;2023-03-01T00:20:18;21.30;;;14.40;;
33824;SDS011;20127;48.962;8.342;2023-03-01T00:23:19;21.00;;;13.10;;
33824;SDS011;20127;48.962;8.342;2023-03-01T00:26:22;22.20;;;13.40;;
33824;SDS011;20127;48.962;8.342;2023-03-01T00:29:26;26.23;;;14.33;;
33824;SDS011;20127;48.962;8.342;2023-03-01T00:32:28;20.60;;;13.93;;
33824;SDS011;20127;48.962;8.342;2023-03-01T00:35:29;25.97;;;13.93;;
33824;SDS011;20127;48.962;8.342;2023-03-01T00:38:34;18.10;;;11.67;;
33824;SDS011;20127;48.962;8.342;2023-03-01T00:41:36;20.00;;;13.00;;
33824;SDS011;20127;48.962;8.342;2023-03-01T00:44:41;21.77;;;13.97;;
33824;SDS011;20127;48.962;8.342;2023-03-01T00:47:43;19.80;;;12.80;;
33824;SDS011;20127;48.962;8.342;2023-03-01T00:50:45;20.57;;;12.67;;
33824;SDS011;20127;48.962;8.342;2023-03-01T00:53:46;17.63;;;11.43;;
33824;SDS011;20127;48.962;8.342;2023-03-01T00:56:50;23.10;;;14.20;;
33824;SDS011;20127;48.962;8.342;2023-03-01T00:59:53;19.17;;;12.67;;
33824;SDS011;20127;48.962;8.342;2023-03-01T01:02:55;18.57;;;11.93;;
33824;SDS011;20127;48.962;8.342;2023-03-01T01:05:57;23.00;;;14.47;;
33824;SDS011;20127;48.962;8.342;2023-03-01T01:08:59;21.63;;;12.73;;
33824;SDS011;20127;48.962;8.342;2023-03-01T01:12:01;16.43;;;13.30;;
33824;SDS011;20127;48.962;8.342;2023-03-01T01:15:04;24.57;;;11.33;;
33824;SDS011;20127;48.962;8.342;2023-03-01T01:18:06;23.53;;;13.63;;
33824;SDS011;20127;48.962;8.342;2023-03-01T01:21:09;19.27;;;12.03;;
33824;SDS011;20127;48.962;8.342;2023-03-01T01:24:12;17.17;;;12.03;;
33824;SDS011;20127;48.962;8.342;2023-03-01T01:27:14;20.43;;;12.50;;
33824;SDS011;20127;48.962;8.342;2023-03-01T01:30:17;16.03;;;9.60;;
33824;SDS011;20127;48.962;8.342;2023-03-01T01:33:19;17.90;;;10.70;;
33824;SDS011;20127;48.962;8.342;2023-03-01T01:36:20;16.93;;;10.43;;
33824;SDS011;20127;48.962;8.342;2023-03-01T01:39:23;17.87;;;11.97;;
33824;SDS011;20127;48.962;8.342;2023-03-01T01:42:25;25.10;;;13.87;;
33824;SDS011;20127;48.962;8.342;2023-03-01T01:45:31;19.53;;;11.20;;
33824;SDS011;20127;48.962;8.342;2023-03-01T01:48:37;14.40;;;9.60;;
33824;SDS011;20127;48.962;8.342;2023-03-01T01:51:42;20.13;;;12.27;;
33824;SDS011;20127;48.962;8.342;2023-03-01T01:54:49;21.30;;;13.10;;
33824;SDS011;20127;48.962;8.342;2023-03-01T01:57:55;19.67;;;11.83;;
33824;SDS011;20127;48.962;8.342;2023-03-01T02:01:02;21.93;;;14.43;;
33824;SDS011;20127;48.962;8.342;2023-03-01T02:04:04;21.00;;;13.17;;
33824;SDS011;20127;48.962;8.342;2023-03-01T02:07:09;20.73;;;12.27;;
33824;SDS011;20127;48.962;8.342;2023-03-01T02:13:16;20.90;;;10.47;;
33824;SDS011;20127;48.962;8.342;2023-03-01T02:16:20;25.47;;;13.50;;
33824;SDS011;20127;48.962;8.342;2023-03-01T02:19:25;15.57;;;11.63;;
33824;SDS011;20127;48.962;8.342;2023-03-01T02:22:36;28.27;;;14.93;;
33824;SDS011;20127;48.962;8.342;2023-03-01T02:25:43;19.43;;;11.87;;
33824;SDS011;20127;48.962;8.342;2023-03-01T02:28:53;24.83;;;14.20;;
33824;SDS011;20127;48.962;8.342;2023-03-01T02:31:55;23.03;;;12.67;;
33824;SDS011;20127;48.962;8.342;2023-03-01T02:34:59;19.13;;;12.47;;
33824;SDS011;20127;48.962;8.342;2023-03-01T02:38:01;20.37;;;13.77;;
33824;SDS011;20127;48.962;8.342;2023-03-01T02:41:03;19.57;;;13.03;;
33824;SDS011;20127;48.962;8.342;2023-03-01T02:44:08;23.17;;;14.20;;
33824;SDS011;20127;48.962;8.342;2023-03-01T02:47:10;23.57;;;14.47;;
33824;SDS011;20127;48.962;8.342;2023-03-01T02:50:14;24.73;;;13.53;;
33824;SDS011;20127;48.962;8.342;2023-03-01T02:53:27;24.73;;;15.93;;
33824;SDS011;20127;48.962;8.342;2023-03-01T02:56:33;20.07;;;13.63;;
33824;SDS011;20127;48.962;8.342;2023-03-01T02:59:37;25.83;;;15.07;;
33824;SDS011;20127;48.962;8.342;2023-03-01T03:02:40;20.73;;;15.33;;
33824;SDS011;20127;48.962;8.342;2023-03-01T03:05:42;25.93;;;14.30;;
33824;SDS011;20127;48.962;8.342;2023-03-01T03:08:44;22.57;;;14.83;;
33824;SDS011;20127;48.962;8.342;2023-03-01T03:11:46;22.97;;;13.10;;
33824;SDS011;20127;48.962;8.342;2023-03-01T03:14:49;23.33;;;15.20;;
33824;SDS011;20127;48.962;8.342;2023-03-01T03:17:51;23.63;;;15.67;;
33824;SDS011;20127;48.962;8.342;2023-03-01T03:20:54;25.10;;;15.33;;
33824;SDS011;20127;48.962;8.342;2023-03-01T03:23:56;26.17;;;14.63;;
33824;SDS011;20127;48.962;8.342;2023-03-01T03:26:58;22.60;;;14.93;;
33824;SDS011;20127;48.962;8.342;2023-03-01T03:30:01;21.77;;;14.13;;
33824;SDS011;20127;48.962;8.342;2023-03-01T03:33:03;20.67;;;13.30;;
33824;SDS011;20127;48.962;8.342;2023-03-01T03:36:04;19.73;;;13.87;;
33824;SDS011;20127;48.962;8.342;2023-03-01T03:39:06;25.83;;;13.83;;
33824;SDS011;20127;48.962;8.342;2023-03-01T03:42:08;29.40;;;14.40;;
33824;SDS011;20127;48.962;8.342;2023-03-01T03:45:11;27.10;;;15.57;;
33824;SDS011;20127;48.962;8.342;2023-03-01T03:48:14;28.50;;;16.27;;
33824;SDS011;20127;48.962;8.342;2023-03-01T03:51:16;25.50;;;14.93;;
33824;SDS011;20127;48.962;8.342;2023-03-01T03:54:19;30.67;;;16.30;;
33824;SDS011;20127;48.962;8.342;2023-03-01T03:57:20;24.03;;;14.13;;
33824;SDS011;20127;48.962;8.342;2023-03-01T04:00:24;28.57;;;15.73;;
33824;SDS011;20127;48.962;8.342;2023-03-01T04:03:27;26.73;;;15.37;;
33824;SDS011;20127;48.962;8.342;2023-03-01T04:06:30;26.93;;;15.43;;
33824;SDS011;20127;48.962;8.342;2023-03-01T04:09:31;23.03;;;15.27;;
33824;SDS011;20127;48.962;8.342;2023-03-01T04:12:33;22.87;;;14.67;;
33824;SDS011;20127;48.962;8.342;2023-03-01T04:15:36;30.00;;;15.70;;
33824;SDS011;20127;48.962;8.342;2023-03-01T04:18:39;27.93;;;16.90;;
33824;SDS011;20127;48.962;8.342;2023-03-01T04:21:40;28.57;;;14.57;;
33824;SDS011;20127;48.962;8.342;2023-03-01T04:24:42;27.00;;;15.40;;
33824;SDS011;20127;48.962;8.342;2023-03-01T04:27:44;29.10;;;16.17;;
33824;SDS011;20127;48.962;8.342;2023-03-01T04:30:47;26.17;;;14.57;;
33824;SDS011;20127;48.962;8.342;2023-03-01T04:33:49;23.03;;;15.10;;
33824;SDS011;20127;48.962;8.342;2023-03-01T04:36:52;26.20;;;14.23;;
33824;SDS011;20127;48.962;8.342;2023-03-01T04:39:54;25.67;;;14.50;;
33824;SDS011;20127;48.962;8.342;2023-03-01T04:42:56;23.77;;;14.80;;
33824;SDS011;20127;48.962;8.342;2023-03-01T04:46:01;23.37;;;15.80;;
33824;SDS011;20127;48.962;8.342;2023-03-01T04:49:03;30.53;;;16.30;;
33824;SDS011;20127;48.962;8.342;2023-03-01T04:52:05;35.80;;;16.93;;
33824;SDS011;20127;48.962;8.342;2023-03-01T04:55:07;27.53;;;16.00;;
33824;SDS011;20127;48.962;8.342;2023-03-01T04:58:10;27.17;;;16.30;;
33824;SDS011;20127;48.962;8.342;2023-03-01T05:01:14;33.37;;;17.40;;
33824;SDS011;20127;48.962;8.342;2023-03-01T05:04:17;30.93;;;18.20;;
33824;SDS011;20127;48.962;8.342;2023-03-01T05:07:19;32.30;;;18.43;;
33824;SDS011;20127;48.962;8.342;2023-03-01T05:10:21;27.00;;;17.53;;
33824;SDS011;20127;48.962;8.342;2023-03-01T05:13:23;26.47;;;15.97;;
33824;SDS011;20127;48.962;8.342;2023-03-01T05:16:27;29.63;;;17.50;;
33824;SDS011;20127;48.962;8.342;2023-03-01T05:19:30;27.13;;;16.67;;
33824;SDS011;20127;48.962;8.342;2023-03-01T05:22:32;35.73;;;17.93;;
33824;SDS011;20127;48.962;8.342;2023-03-01T05:25:34;30.33;;;18.07;;
33824;SDS011;20127;48.962;8.342;2023-03-01T05:28:40;27.90;;;15.80;;
33824;SDS011;20127;48.962;8.342;2023-03-01T05:31:43;32.63;;;19.20;;
33824;SDS011;20127;48.962;8.342;2023-03-01T05:34:44;30.50;;;17.63;;
33824;SDS011;20127;48.962;8.342;2023-03-01T05:37:47;32.40;;;17.20;;
33824;SDS011;20127;48.962;8.342;2023-03-01T05:40:50;23.57;;;14.60;;
33824;SDS011;20127;48.962;8.342;2023-03-01T05:43:52;25.10;;;16.53;;
33824;SDS011;20127;48.962;8.342;2023-03-01T05:46:55;27.47;;;16.23;;
33824;SDS011;20127;48.962;8.342;2023-03-01T05:49:57;31.10;;;17.57;;
33824;SDS011;20127;48.962;8.342;2023-03-01T05:52:59;29.03;;;17.10;;
33824;SDS011;20127;48.962;8.342;2023-03-01T05:56:02;30.97;;;16.23;;
33824;SDS011;20127;48.962;8.342;2023-03-01T05:59:04;23.80;;;16.93;;
33824;SDS011;20127;48.962;8.342;2023-03-01T06:02:07;38.53;;;18.73;;
33824;SDS011;20127;48.962;8.342;2023-03-01T06:05:10;28.17;;;17.50;;
33824;SDS011;20127;48.962;8.342;2023-03-01T06:08:13;30.37;;;17.17;;
33824;SDS011;20127;48.962;8.342;2023-03-01T06:11:14;41.40;;;21.97;;
33824;SDS011;20127;48.962;8.342;2023-03-01T06:14:16;29.10;;;16.70;;
33824;SDS011;20127;48.962;8.342;2023-03-01T06:17:19;31.57;;;19.43;;
33824;SDS011;20127;48.962;8.342;2023-03-01T06:20:22;26.97;;;18.90;;
33824;SDS011;20127;48.962;8.342;2023-03-01T06:23:25;29.97;;;18.03;;
33824;SDS011;20127;48.962;8.342;2023-03-01T06:26:27;30.90;;;17.20;;
33824;SDS011;20127;48.962;8.342;2023-03-01T06:29:29;32.00;;;17.47;;
33824;SDS011;20127;48.962;8.342;2023-03-01T06:32:32;30.57;;;19.03;;
33824;SDS011;20127;48.962;8.342;2023-03-01T06:35:33;29.93;;;17.77;;
33824;SDS011;20127;48.962;8.342;2023-03-01T06:38:35;31.23;;;18.23;;
33824;SDS011;20127;48.962;8.342;2023-03-01T06:41:37;37.73;;;18.57;;
33824;SDS011;20127;48.962;8.342;2023-03-01T06:44:39;28.73;;;17.17;;
33824;SDS011;20127;48.962;8.342;2023-03-01T06:47:42;28.33;;;17.17;;
33824;SDS011;20127;48.962;8.342;2023-03-01T06:50:44;27.13;;;15.53;;
33824;SDS011;20127;48.962;8.342;2023-03-01T06:53:45;28.77;;;18.33;;
33824;SDS011;20127;48.962;8.342;2023-03-01T06:56:47;34.93;;;18.50;;
33824;SDS011;20127;48.962;8.342;2023-03-01T06:59:49;27.37;;;17.13;;
33824;SDS011;20127;48.962;8.342;2023-03-01T07:02:52;27.70;;;18.90;;
33824;SDS011;20127;48.962;8.342;2023-03-01T07:05:54;27.30;;;15.90;;
33824;SDS011;20127;48.962;8.342;2023-03-01T07:08:56;34.97;;;18.03;;
33824;SDS011;20127;48.962;8.342;2023-03-01T07:11:58;38.53;;;17.70;;
33824;SDS011;20127;48.962;8.342;2023-03-01T07:14:59;30.23;;;17.53;;
33824;SDS011;20127;48.962;8.342;2023-03-01T07:18:02;32.43;;;17.87;;
33824;SDS011;20127;48.962;8.342;2023-03-01T07:21:05;33.50;;;19.13;;
33824;SDS011;20127;48.962;8.342;2023-03-01T07:24:07;37.20;;;17.77;;
33824;SDS011;20127;48.962;8.342;2023-03-01T07:27:09;31.33;;;17.00;;
33824;SDS011;20127;48.962;8.342;2023-03-01T07:30:11;28.17;;;15.80;;
33824;SDS011;20127;48.962;8.342;2023-03-01T07:33:14;34.37;;;20.07;;
33824;SDS011;20127;48.962;8.342;2023-03-01T07:36:16;30.97;;;18.80;;
33824;SDS011;20127;48.962;8.342;2023-03-01T07:39:18;24.17;;;16.10;;
33824;SDS011;20127;48.962;8.342;2023-03-01T07:42:19;29.85;;;18.42;;
33824;SDS011;20127;48.962;8.342;2023-03-01T07:45:21;25.05;;;17.60;;
33824;SDS011;20127;48.962;8.342;2023-03-01T07:48:24;31.23;;;17.52;;
33824;SDS011;20127;48.962;8.342;2023-03-01T07:51:26;26.08;;;16.88;;
33824;SDS011;20127;48.962;8.342;2023-03-01T07:54:27;26.38;;;17.58;;
33824;SDS011;20127;48.962;8.342;2023-03-01T07:57:29;24.60;;;16.50;;
33824;SDS011;20127;48.962;8.342;2023-03-01T08:00:31;25.40;;;16.23;;
33824;SDS011;20127;48.962;8.342;2023-03-01T08:03:35;25.52;;;16.80;;
33824;SDS011;20127;48.962;8.342;2023-03-01T08:06:37;31.10;;;20.45;;
33824;SDS011;20127;48.962;8.342;2023-03-01T08:09:39;26.30;;;17.00;;
33824;SDS011;20127;48.962;8.342;2023-03-01T08:12:41;46.45;;;20.27;;
33824;SDS011;20127;48.962;8.342;2023-03-01T08:15:44;27.98;;;19.02;;
33824;SDS011;20127;48.962;8.342;2023-03-01T08:18:52;27.95;;;16.08;;
33824;SDS011;20127;48.962;8.342;2023-03-01T08:21:56;30.40;;;16.63;;
33824;SDS011;20127;48.962;8.342;2023-03-01T08:24:58;26.45;;;17.63;;
33824;SDS011;20127;48.962;8.342;2023-03-01T08:28:01;29.75;;;18.33;;
33824;SDS011;20127;48.962;8.342;2023-03-01T08:31:12;27.90;;;14.07;;
33824;SDS011;20127;48.962;8.342;2023-03-01T08:34:16;27.60;;;17.67;;
33824;SDS011;20127;48.962;8.342;2023-03-01T08:37:19;27.15;;;17.35;;
33824;SDS011;20127;48.962;8.342;2023-03-01T08:40:21;29.42;;;18.00;;
33824;SDS011;20127;48.962;8.342;2023-03-01T08:43:22;29.30;;;18.52;;
33824;SDS011;20127;48.962;8.342;2023-03-01T08:46:25;28.80;;;17.17;;
33824;SDS011;20127;48.962;8.342;2023-03-01T08:49:28;26.02;;;17.27;;
33824;SDS011;20127;48.962;8.342;2023-03-01T08:52:30;27.35;;;20.90;;
33824;SDS011;20127;48.962;8.342;2023-03-01T08:55:33;25.23;;;16.70;;
33824;SDS011;20127;48.962;8.342;2023-03-01T08:58:35;38.33;;;24.83;;
33824;SDS011;20127;48.962;8.342;2023-03-01T09:01:37;28.20;;;20.63;;
33824;SDS011;20127;48.962;8.342;2023-03-01T09:04:41;30.40;;;18.55;;
33824;SDS011;20127;48.962;8.342;2023-03-01T09:07:44;26.75;;;18.38;;
33824;SDS011;20127;48.962;8.342;2023-03-01T09:10:45;24.17;;;17.70;;
33824;SDS011;20127;48.962;8.342;2023-03-01T09:13:47;32.75;;;18.63;;
33824;SDS011;20127;48.962;8.342;2023-03-01T09:16:52;30.58;;;21.83;;
33824;SDS011;20127;48.962;8.342;2023-03-01T09:19:55;29.02;;;19.27;;
33824;SDS011;20127;48.962;8.342;2023-03-01T09:22:57;25.60;;;18.65;;
33824;SDS011;20127;48.962;8.342;2023-03-01T09:26:00;27.00;;;18.98;;
33824;SDS011;20127;48.962;8.342;2023-03-01T09:29:02;27.35;;;16.65;;
33824;SDS011;20127;48.962;8.342;2023-03-01T09:32:04;27.88;;;20.88;;
33824;SDS011;20127;48.962;8.342;2023-03-01T09:35:08;26.30;;;17.70;;
33824;SDS011;20127;48.962;8.342;2023-03-01T09:38:14;24.85;;;17.00;;
33824;SDS011;20127;48.962;8.342;2023-03-01T09:41:20;26.92;;;16.70;;
33824;SDS011;20127;48.962;8.342;2023-03-01T09:44:35;27.73;;;17.17;;
33824;SDS011;20127;48.962;8.342;2023-03-01T09:50:44;28.00;;;20.48;;
33824;SDS011;20127;48.962;8.342;2023-03-01T09:53:46;29.65;;;23.00;;
33824;SDS011;20127;48.962;8.342;2023-03-01T09:56:52;25.58;;;20.67;;
33824;SDS011;20127;48.962;8.342;2023-03-01T10:00:07;30.75;;;20.90;;
33824;SDS011;20127;48.962;8.342;2023-03-01T10:03:31;22.40;;;17.77;;
33824;SDS011;20127;48.962;8.342;2023-03-01T10:06:43;24.23;;;18.65;;
33824;SDS011;20127;48.962;8.342;2023-03-01T10:09:50;27.45;;;17.33;;
33824;SDS011;20127;48.962;8.342;2023-03-01T10:12:53;26.33;;;19.08;;
33824;SDS011;20127;48.962;8.342;2023-03-01T10:15:57;34.08;;;18.08;;
33824;SDS011;20127;48.962;8.342;2023-03-01T10:19:03;29.77;;;18.90;;
33824;SDS011;20127;48.962;8.342;2023-03-01T10:22:11;22.95;;;18.55;;
33824;SDS011;20127;48.962;8.342;2023-03-01T10:25:19;24.75;;;18.52;;
33824;SDS011;20127;48.962;8.342;2023-03-01T10:28:29;28.23;;;19.40;;
33824;SDS011;20127;48.962;8.342;2023-03-01T10:31:38;21.48;;;16.67;;
33824;SDS011;20127;48.962;8.342;2023-03-01T10:34:43;19.13;;;14.40;;
33824;SDS011;20127;48.962;8.342;2023-03-01T10:37:57;32.00;;;18.80;;
33824;SDS011;20127;48.962;8.342;2023-03-01T10:41:04;29.50;;;19.45;;
33824;SDS011;20127;48.962;8.342;2023-03-01T10:44:07;24.45;;;16.55;;
33824;SDS011;20127;48.962;8.342;2023-03-01T10:47:33;26.73;;;17.75;;
33824;SDS011;20127;48.962;8.342;2023-03-01T10:50:35;33.00;;;22.70;;
33824;SDS011;20127;48.962;8.342;2023-03-01T10:53:40;27.75;;;16.70;;
33824;SDS011;20127;48.962;8.342;2023-03-01T10:56:47;26.45;;;17.83;;
33824;SDS011;20127;48.962;8.342;2023-03-01T10:59:51;22.85;;;18.50;;
33824;SDS011;20127;48.962;8.342;2023-03-01T11:03:13;25.60;;;19.42;;
33824;SDS011;20127;48.962;8.342;2023-03-01T11:06:21;26.45;;;18.35;;
33824;SDS011;20127;48.962;8.342;2023-03-01T11:09:23;22.75;;;17.17;;
33824;SDS011;20127;48.962;8.342;2023-03-01T11:12:27;26.38;;;17.42;;
33824;SDS011;20127;48.962;8.342;2023-03-01T11:15:29;43.17;;;19.95;;
33824;SDS011;20127;48.962;8.342;2023-03-01T11:18:32;25.17;;;18.08;;
33824;SDS011;20127;48.962;8.342;2023-03-01T11:21:34;32.25;;;20.45;;
33824;SDS011;20127;48.962;8.342;2023-03-01T11:24:40;27.40;;;20.83;;
33824;SDS011;20127;48.962;8.342;2023-03-01T11:27:44;26.98;;;19.20;;
33824;SDS011;20127;48.962;8.342;2023-03-01T11:30:48;26.75;;;18.33;;
33824;SDS011;20127;48.962;8.342;2023-03-01T11:33:57;25.48;;;16.98;;
33824;SDS011;20127;48.962;8.342;2023-03-01T11:37:03;27.92;;;18.23;;
33824;SDS011;20127;48.962;8.342;2023-03-01T11:40:14;20.67;;;17.63;;
33824;SDS011;20127;48.962;8.342;2023-03-01T11:43:19;24.95;;;20.02;;
33824;SDS011;20127;48.962;8.342;2023-03-01T11:46:46;22.70;;;18.70;;
33824;SDS011;20127;48.962;8.342;2023-03-01T11:50:08;26.13;;;17.52;;
33824;SDS011;20127;48.962;8.342;2023-03-01T11:53:23;31.60;;;19.92;;
33824;SDS011;20127;48.962;8.342;2023-03-01T11:56:38;26.80;;;21.55;;
33824;SDS011;20127;48.962;8.342;2023-03-01T11:59:50;25.33;;;18.88;;
33824;SDS011;20127;48.962;8.342;2023-03-01T12:03:15;30.42;;;22.55;;
33824;SDS011;20127;48.962;8.342;2023-03-01T12:06:33;31.17;;;18.80;;
33824;SDS011;20127;48.962;8.342;2023-03-01T12:09:48;27.67;;;19.98;;
33824;SDS011;20127;48.962;8.342;2023-03-01T12:13:23;33.50;;;21.05;;
33824;SDS011;20127;48.962;8.342;2023-03-01T12:17:05;23.95;;;16.63;;
33824;SDS011;20127;48.962;8.342;2023-03-01T12:20:29;25.60;;;18.23;;
33824;SDS011;20127;48.962;8.342;2023-03-01T12:23:50;27.40;;;17.50;;
33824;SDS011;20127;48.962;8.342;2023-03-01T12:27:16;26.73;;;20.73;;
33824;SDS011;20127;48.962;8.342;2023-03-01T12:30:26;23.10;;;18.50;;
33824;SDS011;20127;48.962;8.342;2023-03-01T12:33:39;28.95;;;18.30;;
33824;SDS011;20127;48.962;8.342;2023-03-01T12:36:54;28.00;;;19.42;;
33824;SDS011;20127;48.962;8.342;2023-03-01T12:44:07;23.85;;;16.08;;
33824;SDS011;20127;48.962;8.342;2023-03-01T12:47:27;26.95;;;20.80;;
33824;SDS011;20127;48.962;8.342;2023-03-01T12:50:42;22.90;;;18.83;;
33824;SDS011;20127;48.962;8.342;2023-03-01T12:53:48;26.02;;;17.98;;
33824;SDS011;20127;48.962;8.342;2023-03-01T12:56:52;21.90;;;16.52;;
33824;SDS011;20127;48.962;8.342;2023-03-01T13:00:00;26.83;;;18.13;;
33824;SDS011;20127;48.962;8.342;2023-03-01T13:03:14;24.63;;;19.20;;
33824;SDS011;20127;48.962;8.342;2023-03-01T13:06:25;26.00;;;19.13;;
33824;SDS011;20127;48.962;8.342;2023-03-01T13:09:38;24.80;;;16.73;;
33824;SDS011;20127;48.962;8.342;2023-03-01T13:12:47;25.23;;;18.42;;
33824;SDS011;20127;48.962;8.342;2023-03-01T13:15:53;23.67;;;15.32;;
33824;SDS011;20127;48.962;8.342;2023-03-01T13:19:05;24.60;;;17.90;;
33824;SDS011;20127;48.962;8.342;2023-03-01T13:28:37;26.33;;;18.98;;
33824;SDS011;20127;48.962;8.342;2023-03-01T13:31:56;24.00;;;16.60;;
33824;SDS011;20127;48.962;8.342;2023-03-01T13:34:59;23.42;;;18.20;;
33824;SDS011;20127;48.962;8.342;2023-03-01T13:41:48;24.88;;;18.60;;
33824;SDS011;20127;48.962;8.342;2023-03-01T13:44:53;23.00;;;16.13;;
33824;SDS011;20127;48.962;8.342;2023-03-01T13:47:56;25.17;;;19.60;;
33824;SDS011;20127;48.962;8.342;2023-03-01T13:51:01;29.20;;;18.55;;
33824;SDS011;20127;48.962;8.342;2023-03-01T13:54:04;18.80;;;15.18;;
33824;SDS011;20127;48.962;8.342;2023-03-01T13:57:12;21.77;;;16.77;;
33824;SDS011;20127;48.962;8.342;2023-03-01T14:00:31;22.85;;;18.25;;
33824;SDS011;20127;48.962;8.342;2023-03-01T14:03:40;21.13;;;15.95;;
33824;SDS011;20127;48.962;8.342;2023-03-01T14:06:42;23.90;;;17.17;;
33824;SDS011;20127;48.962;8.342;2023-03-01T14:09:44;26.08;;;19.77;;
33824;SDS011;20127;48.962;8.342;2023-03-01T14:12:49;19.90;;;17.65;;
33824;SDS011;20127;48.962;8.342;2023-03-01T14:16:02;27.02;;;18.20;;
33824;SDS011;20127;48.962;8.342;2023-03-01T14:19:15;26.40;;;18.52;;
33824;SDS011;20127;48.962;8.342;2023-03-01T14:22:20;19.42;;;15.32;;
33824;SDS011;20127;48.962;8.342;2023-03-01T14:25:24;25.45;;;20.63;;
33824;SDS011;20127;48.962;8.342;2023-03-01T14:28:28;21.83;;;18.45;;
33824;SDS011;20127;48.962;8.342;2023-03-01T14:31:39;25.92;;;17.20;;
33824;SDS011;20127;48.962;8.342;2023-03-01T14:34:42;24.40;;;17.98;;
33824;SDS011;20127;48.962;8.342;2023-03-01T14:37:45;22.63;;;16.90;;
33824;SDS011;20127;48.962;8.342;2023-03-01T14:40:50;21.13;;;17.48;;
33824;SDS011;20127;48.962;8.342;2023-03-01T14:43:56;22.08;;;16.80;;
33824;SDS011;20127;48.962;8.342;2023-03-01T14:47:01;19.73;;;16.25;;
33824;SDS011;20127;48.962;8.342;2023-03-01T14:50:05;21.88;;;16.65;;
33824;SDS011;20127;48.962;8.342;2023-03-01T14:53:13;20.52;;;17.17;;
33824;SDS011;20127;48.962;8.342;2023-03-01T14:56:18;19.73;;;16.13;;
33824;SDS011;20127;48.962;8.342;2023-03-01T14:59:21;21.48;;;16.10;;
33824;SDS011;20127;48.962;8.342;2023-03-01T15:02:26;27.75;;;18.35;;
33824;SDS011;20127;48.962;8.342;2023-03-01T15:05:30;23.35;;;19.23;;
33824;SDS011;20127;48.962;8.342;2023-03-01T15:08:33;24.00;;;18.98;;
33824;SDS011;20127;48.962;8.342;2023-03-01T15:11:36;25.60;;;17.33;;
33824;SDS011;20127;48.962;8.342;2023-03-01T15:14:42;25.60;;;19.40;;
33824;SDS011;20127;48.962;8.342;2023-03-01T15:17:48;24.42;;;18.80;;
33824;SDS011;20127;48.962;8.342;2023-03-01T15:20:55;19.98;;;16.13;;
33824;SDS011;20127;48.962;8.342;2023-03-01T15:24:06;25.02;;;20.17;;
33824;SDS011;20127;48.962;8.342;2023-03-01T15:27:20;22.77;;;16.58;;
33824;SDS011;20127;48.962;8.342;2023-03-01T15:30:24;28.33;;;17.95;;
33824;SDS011;20127;48.962;8.342;2023-03-01T15:33:31;19.10;;;16.30;;
33824;SDS011;20127;48.962;8.342;2023-03-01T15:36:37;29.77;;;17.92;;
33824;SDS011;20127;48.962;8.342;2023-03-01T15:39:42;24.02;;;16.77;;
33824;SDS011;20127;48.962;8.342;2023-03-01T15:42:53;23.48;;;16.13;;
33824;SDS011;20127;48.962;8.342;2023-03-01T15:45:56;21.17;;;15.30;;
33824;SDS011;20127;48.962;8.342;2023-03-01T15:49:00;16.90;;;13.48;;
33824;SDS011;20127;48.962;8.342;2023-03-01T15:52:03;22.08;;;15.93;;
33824;SDS011;20127;48.962;8.342;2023-03-01T15:55:10;23.25;;;17.70;;
33824;SDS011;20127;48.962;8.342;2023-03-01T15:58:18;29.90;;;17.80;;
33824;SDS011;20127;48.962;8.342;2023-03-01T16:01:21;26.83;;;16.00;;
33824;SDS011;20127;48.962;8.342;2023-03-01T16:04:24;23.33;;;16.73;;
33824;SDS011;20127;48.962;8.342;2023-03-01T16:07:26;22.10;;;16.17;;
33824;SDS011;20127;48.962;8.342;2023-03-01T16:10:28;24.45;;;18.33;;
33824;SDS011;20127;48.962;8.342;2023-03-01T16:13:31;25.60;;;17.92;;
33824;SDS011;20127;48.962;8.342;2023-03-01T16:16:35;20.63;;;14.43;;
33824;SDS011;20127;48.962;8.342;2023-03-01T16:19:38;21.23;;;14.73;;
33824;SDS011;20127;48.962;8.342;2023-03-01T16:22:40;21.05;;;15.52;;
33824;SDS011;20127;48.962;8.342;2023-03-01T16:25:42;22.70;;;16.45;;
33824;SDS011;20127;48.962;8.342;2023-03-01T16:28:44;24.65;;;17.58;;
33824;SDS011;20127;48.962;8.342;2023-03-01T16:31:46;21.48;;;16.60;;
33824;SDS011;20127;48.962;8.342;2023-03-01T16:34:49;23.70;;;15.85;;
33824;SDS011;20127;48.962;8.342;2023-03-01T16:37:51;24.23;;;16.15;;
33824;SDS011;20127;48.962;8.342;2023-03-01T16:40:53;25.65;;;15.50;;
33824;SDS011;20127;48.962;8.342;2023-03-01T16:43:55;25.65;;;16.42;;
33824;SDS011;20127;48.962;8.342;2023-03-01T16:46:57;21.35;;;14.68;;
33824;SDS011;20127;48.962;8.342;2023-03-01T16:50:00;22.58;;;17.27;;
33824;SDS011;20127;48.962;8.342;2023-03-01T16:53:02;26.42;;;18.70;;
33824;SDS011;20127;48.962;8.342;2023-03-01T16:56:04;30.95;;;19.15;;
33824;SDS011;20127;48.962;8.342;2023-03-01T16:59:08;25.27;;;15.30;;
33824;SDS011;20127;48.962;8.342;2023-03-01T17:02:10;23.25;;;16.02;;
33824;SDS011;20127;48.962;8.342;2023-03-01T17:05:13;26.33;;;17.45;;
33824;SDS011;20127;48.962;8.342;2023-03-01T17:08:15;23.30;;;16.05;;
33824;SDS011;20127;48.962;8.342;2023-03-01T17:11:18;24.98;;;16.25;;
33824;SDS011;20127;48.962;8.342;2023-03-01T17:14:20;22.10;;;16.55;;
33824;SDS011;20127;48.962;8.342;2023-03-01T17:17:22;24.65;;;17.45;;
33824;SDS011;20127;48.962;8.342;2023-03-01T17:20:25;24.48;;;16.80;;
33824;SDS011;20127;48.962;8.342;2023-03-01T17:23:27;26.35;;;16.73;;
33824;SDS011;20127;48.962;8.342;2023-03-01T17:26:29;22.77;;;17.50;;
33824;SDS011;20127;48.962;8.342;2023-03-01T17:29:31;20.65;;;14.63;;
33824;SDS011;20127;48.962;8.342;2023-03-01T17:32:33;26.50;;;17.65;;
33824;SDS011;20127;48.962;8.342;2023-03-01T17:35:36;23.90;;;16.48;;
33824;SDS011;20127;48.962;8.342;2023-03-01T17:38:40;22.83;;;16.02;;
33824;SDS011;20127;48.962;8.342;2023-03-01T17:41:41;25.02;;;15.68;;
33824;SDS011;20127;48.962;8.342;2023-03-01T17:44:43;25.02;;;17.02;;
33824;SDS011;20127;48.962;8.342;2023-03-01T17:47:45;25.15;;;16.55;;
33824;SDS011;20127;48.962;8.342;2023-03-01T17:50:48;23.63;;;17.08;;
33824;SDS011;20127;48.962;8.342;2023-03-01T17:53:50;21.48;;;14.50;;
33824;SDS011;20127;48.962;8.342;2023-03-01T17:56:51;28.02;;;16.73;;
33824;SDS011;20127;48.962;8.342;2023-03-01T17:59:54;25.52;;;16.20;;
33824;SDS011;20127;48.962;8.342;2023-03-01T18:02:56;20.40;;;14.15;;
33824;SDS011;20127;48.962;8.342;2023-03-01T18:05:59;27.88;;;15.68;;
33824;SDS011;20127;48.962;8.342;2023-03-01T18:09:01;58.15;;;40.10;;
33824;SDS011;20127;48.962;8.342;2023-03-01T18:12:04;91.05;;;49.67;;
33824;SDS011;20127;48.962;8.342;2023-03-01T18:15:07;37.60;;;21.55;;
33824;SDS011;20127;48.962;8.342;2023-03-01T18:18:10;28.23;;;19.60;;
33824;SDS011;20127;48.962;8.342;2023-03-01T18:21:13;25.35;;;17.35;;